sensor_id;sensor_type;location;lat;lon;timestamp;temperature;humidity
84298;DHT22;74466;51.188;3.242;2023-12-20T00:01:00;8.50;86.60
84298;DHT22;74466;51.188;3.242;2023-12-20T00:03:25;8.40;85.60
84298;DHT22;74466;51.188;3.242;2023-12-20T00:05:51;8.40;85.20
84298;DHT22;74466;51.188;3.242;2023-12-20T00:08:17;8.50;85.80
84298;DHT22;74466;51.188;3.242;2023-12-20T00:10:44;8.40;86.00
84298;DHT22;74466;51.188;3.242;2023-12-20T00:13:10;8.40;85.70
84298;DHT22;74466;51.188;3.242;2023-12-20T00:15:36;8.50;85.60
84298;DHT22;74466;51.188;3.242;2023-12-20T00:18:02;8.50;85.70
84298;DHT22;74466;51.188;3.242;2023-12-20T00:20:28;8.40;85.80
84298;DHT22;74466;51.188;3.242;2023-12-20T00:22:56;8.40;85.80
84298;DHT22;74466;51.188;3.242;2023-12-20T00:25:23;8.40;85.80
84298;DHT22;74466;51.188;3.242;2023-12-20T00:27:49;8.50;85.50
84298;DHT22;74466;51.188;3.242;2023-12-20T00:30:14;8.40;85.60
84298;DHT22;74466;51.188;3.242;2023-12-20T00:32:40;8.40;85.70
84298;DHT22;74466;51.188;3.242;2023-12-20T00:35:15;8.40;86.10
84298;DHT22;74466;51.188;3.242;2023-12-20T00:37:42;8.40;85.70
84298;DHT22;74466;51.188;3.242;2023-12-20T00:40:09;8.40;85.50
84298;DHT22;74466;51.188;3.242;2023-12-20T00:42:35;8.40;85.70
84298;DHT22;74466;51.188;3.242;2023-12-20T00:45:01;8.40;86.10
84298;DHT22;74466;51.188;3.242;2023-12-20T00:47:28;8.40;85.80
84298;DHT22;74466;51.188;3.242;2023-12-20T00:49:54;8.40;86.00
84298;DHT22;74466;51.188;3.242;2023-12-20T00:52:20;8.40;86.00
84298;DHT22;74466;51.188;3.242;2023-12-20T00:54:47;8.40;86.10
84298;DHT22;74466;51.188;3.242;2023-12-20T00:57:13;8.40;85.90
84298;DHT22;74466;51.188;3.242;2023-12-20T00:59:38;8.50;86.20
84298;DHT22;74466;51.188;3.242;2023-12-20T01:02:04;8.40;86.30
84298;DHT22;74466;51.188;3.242;2023-12-20T01:04:30;8.50;86.30
84298;DHT22;74466;51.188;3.242;2023-12-20T01:06:55;8.40;86.50
84298;DHT22;74466;51.188;3.242;2023-12-20T01:09:21;8.50;86.10
84298;DHT22;74466;51.188;3.242;2023-12-20T01:11:52;8.50;85.80
84298;DHT22;74466;51.188;3.242;2023-12-20T01:14:17;8.50;85.50
84298;DHT22;74466;51.188;3.242;2023-12-20T01:16:44;8.50;85.70
84298;DHT22;74466;51.188;3.242;2023-12-20T01:19:09;8.50;86.00
84298;DHT22;74466;51.188;3.242;2023-12-20T01:21:35;8.50;85.60
84298;DHT22;74466;51.188;3.242;2023-12-20T01:24:01;8.50;86.00
84298;DHT22;74466;51.188;3.242;2023-12-20T01:26:27;8.50;85.30
84298;DHT22;74466;51.188;3.242;2023-12-20T01:28:53;8.60;85.40
84298;DHT22;74466;51.188;3.242;2023-12-20T01:31:19;8.60;85.60
84298;DHT22;74466;51.188;3.242;2023-12-20T01:33:44;8.60;85.60
84298;DHT22;74466;51.188;3.242;2023-12-20T01:36:10;8.60;85.20
84298;DHT22;74466;51.188;3.242;2023-12-20T01:38:37;8.60;85.20
84298;DHT22;74466;51.188;3.242;2023-12-20T01:41:02;8.60;85.10
84298;DHT22;74466;51.188;3.242;2023-12-20T01:43:29;8.60;85.00
84298;DHT22;74466;51.188;3.242;2023-12-20T01:45:56;8.50;85.00
84298;DHT22;74466;51.188;3.242;2023-12-20T01:48:23;8.50;84.80
84298;DHT22;74466;51.188;3.242;2023-12-20T01:50:50;8.50;85.10
84298;DHT22;74466;51.188;3.242;2023-12-20T01:53:17;8.50;85.70
84298;DHT22;74466;51.188;3.242;2023-12-20T01:55:45;8.40;85.70
84298;DHT22;74466;51.188;3.242;2023-12-20T01:58:12;8.40;86.30
84298;DHT22;74466;51.188;3.242;2023-12-20T02:00:39;8.40;86.30
84298;DHT22;74466;51.188;3.242;2023-12-20T02:03:04;8.40;86.60
84298;DHT22;74466;51.188;3.242;2023-12-20T02:05:31;8.30;86.40
84298;DHT22;74466;51.188;3.242;2023-12-20T02:07:57;8.40;86.70
84298;DHT22;74466;51.188;3.242;2023-12-20T02:10:24;8.30;86.30
84298;DHT22;74466;51.188;3.242;2023-12-20T02:12:50;8.40;85.90
84298;DHT22;74466;51.188;3.242;2023-12-20T02:15:16;8.40;85.70
84298;DHT22;74466;51.188;3.242;2023-12-20T02:17:42;8.40;85.20
84298;DHT22;74466;51.188;3.242;2023-12-20T02:20:09;8.50;85.00
84298;DHT22;74466;51.188;3.242;2023-12-20T02:22:35;8.50;84.70
84298;DHT22;74466;51.188;3.242;2023-12-20T02:25:01;8.50;85.20
84298;DHT22;74466;51.188;3.242;2023-12-20T02:27:27;8.60;85.30
84298;DHT22;74466;51.188;3.242;2023-12-20T02:29:54;8.60;85.40
84298;DHT22;74466;51.188;3.242;2023-12-20T02:32:21;8.50;85.00
84298;DHT22;74466;51.188;3.242;2023-12-20T02:34:48;8.60;85.30
84298;DHT22;74466;51.188;3.242;2023-12-20T02:37:15;8.50;85.90
84298;DHT22;74466;51.188;3.242;2023-12-20T02:39:40;8.50;86.10
84298;DHT22;74466;51.188;3.242;2023-12-20T02:42:06;8.50;86.50
84298;DHT22;74466;51.188;3.242;2023-12-20T02:44:32;8.40;86.20
84298;DHT22;74466;51.188;3.242;2023-12-20T02:46:58;8.40;86.10
84298;DHT22;74466;51.188;3.242;2023-12-20T02:49:24;8.40;86.00
84298;DHT22;74466;51.188;3.242;2023-12-20T02:51:50;8.40;85.90
84298;DHT22;74466;51.188;3.242;2023-12-20T02:54:15;8.40;85.80
84298;DHT22;74466;51.188;3.242;2023-12-20T02:56:41;8.40;85.70
84298;DHT22;74466;51.188;3.242;2023-12-20T02:59:07;8.30;86.00
84298;DHT22;74466;51.188;3.242;2023-12-20T03:01:34;8.40;86.20
84298;DHT22;74466;51.188;3.242;2023-12-20T03:04:00;8.30;85.90
84298;DHT22;74466;51.188;3.242;2023-12-20T03:06:25;8.30;86.10
84298;DHT22;74466;51.188;3.242;2023-12-20T03:08:51;8.30;86.10
84298;DHT22;74466;51.188;3.242;2023-12-20T03:11:17;8.30;85.80
84298;DHT22;74466;51.188;3.242;2023-12-20T03:13:43;8.30;86.40
84298;DHT22;74466;51.188;3.242;2023-12-20T03:16:12;8.30;86.20
84298;DHT22;74466;51.188;3.242;2023-12-20T03:18:39;8.30;86.20
84298;DHT22;74466;51.188;3.242;2023-12-20T03:21:05;8.30;86.30
84298;DHT22;74466;51.188;3.242;2023-12-20T03:23:31;8.30;86.50
84298;DHT22;74466;51.188;3.242;2023-12-20T03:25:59;8.40;86.40
84298;DHT22;74466;51.188;3.242;2023-12-20T03:28:26;8.40;86.60
84298;DHT22;74466;51.188;3.242;2023-12-20T03:30:52;8.30;86.70
84298;DHT22;74466;51.188;3.242;2023-12-20T03:33:18;8.40;86.60
84298;DHT22;74466;51.188;3.242;2023-12-20T03:35:43;8.40;86.90
84298;DHT22;74466;51.188;3.242;2023-12-20T03:38:09;8.40;86.90
84298;DHT22;74466;51.188;3.242;2023-12-20T03:40:35;8.30;87.30
84298;DHT22;74466;51.188;3.242;2023-12-20T03:43:01;8.30;87.50
84298;DHT22;74466;51.188;3.242;2023-12-20T03:45:26;8.30;87.10
84298;DHT22;74466;51.188;3.242;2023-12-20T03:47:52;8.30;87.40
84298;DHT22;74466;51.188;3.242;2023-12-20T03:50:25;8.30;86.90
84298;DHT22;74466;51.188;3.242;2023-12-20T03:52:51;8.20;87.00
84298;DHT22;74466;51.188;3.242;2023-12-20T03:55:17;8.30;86.60
84298;DHT22;74466;51.188;3.242;2023-12-20T03:57:43;8.30;86.60
84298;DHT22;74466;51.188;3.242;2023-12-20T04:00:10;8.20;86.60
84298;DHT22;74466;51.188;3.242;2023-12-20T04:02:39;8.20;86.60
84298;DHT22;74466;51.188;3.242;2023-12-20T04:05:06;8.20;86.00
84298;DHT22;74466;51.188;3.242;2023-12-20T04:07:32;8.20;85.80
84298;DHT22;74466;51.188;3.242;2023-12-20T04:09:59;8.20;85.80
84298;DHT22;74466;51.188;3.242;2023-12-20T04:12:27;8.10;85.70
84298;DHT22;74466;51.188;3.242;2023-12-20T04:14:53;8.10;85.60
84298;DHT22;74466;51.188;3.242;2023-12-20T04:17:19;8.10;86.00
84298;DHT22;74466;51.188;3.242;2023-12-20T04:19:45;8.10;85.60
84298;DHT22;74466;51.188;3.242;2023-12-20T04:22:11;8.00;85.60
84298;DHT22;74466;51.188;3.242;2023-12-20T04:24:37;8.10;85.30
84298;DHT22;74466;51.188;3.242;2023-12-20T04:27:02;8.10;85.20
84298;DHT22;74466;51.188;3.242;2023-12-20T04:29:28;8.10;85.10
84298;DHT22;74466;51.188;3.242;2023-12-20T04:31:54;8.10;85.20
84298;DHT22;74466;51.188;3.242;2023-12-20T04:34:20;8.10;85.10
84298;DHT22;74466;51.188;3.242;2023-12-20T04:36:46;8.00;85.00
84298;DHT22;74466;51.188;3.242;2023-12-20T04:39:13;8.10;85.10
84298;DHT22;74466;51.188;3.242;2023-12-20T04:41:40;8.00;85.40
84298;DHT22;74466;51.188;3.242;2023-12-20T04:44:06;8.10;85.40
84298;DHT22;74466;51.188;3.242;2023-12-20T04:46:32;8.00;85.40
84298;DHT22;74466;51.188;3.242;2023-12-20T04:48:58;8.00;85.30
84298;DHT22;74466;51.188;3.242;2023-12-20T04:51:24;8.00;85.40
84298;DHT22;74466;51.188;3.242;2023-12-20T04:53:50;8.00;85.80
84298;DHT22;74466;51.188;3.242;2023-12-20T04:56:15;8.00;85.20
84298;DHT22;74466;51.188;3.242;2023-12-20T04:58:42;8.00;85.40
84298;DHT22;74466;51.188;3.242;2023-12-20T05:01:09;8.10;85.30
84298;DHT22;74466;51.188;3.242;2023-12-20T05:03:35;8.10;85.70
84298;DHT22;74466;51.188;3.242;2023-12-20T05:06:01;8.10;85.80
84298;DHT22;74466;51.188;3.242;2023-12-20T05:08:27;8.20;85.90
84298;DHT22;74466;51.188;3.242;2023-12-20T05:10:56;8.20;86.10
84298;DHT22;74466;51.188;3.242;2023-12-20T05:13:22;8.20;86.30
84298;DHT22;74466;51.188;3.242;2023-12-20T05:15:47;8.20;86.20
84298;DHT22;74466;51.188;3.242;2023-12-20T05:18:14;8.20;86.20
84298;DHT22;74466;51.188;3.242;2023-12-20T05:20:40;8.20;86.30
84298;DHT22;74466;51.188;3.242;2023-12-20T05:23:06;8.20;86.50
84298;DHT22;74466;51.188;3.242;2023-12-20T05:25:32;8.20;86.70
84298;DHT22;74466;51.188;3.242;2023-12-20T05:27:58;8.10;86.80
84298;DHT22;74466;51.188;3.242;2023-12-20T05:30:24;8.10;86.60
84298;DHT22;74466;51.188;3.242;2023-12-20T05:32:50;8.10;86.90
84298;DHT22;74466;51.188;3.242;2023-12-20T05:35:16;8.10;86.90
84298;DHT22;74466;51.188;3.242;2023-12-20T05:37:42;8.10;87.00
84298;DHT22;74466;51.188;3.242;2023-12-20T05:40:08;8.10;87.00
84298;DHT22;74466;51.188;3.242;2023-12-20T05:42:37;8.00;86.80
84298;DHT22;74466;51.188;3.242;2023-12-20T05:45:04;8.00;86.60
84298;DHT22;74466;51.188;3.242;2023-12-20T05:47:31;8.10;86.50
84298;DHT22;74466;51.188;3.242;2023-12-20T05:49:57;8.00;86.60
84298;DHT22;74466;51.188;3.242;2023-12-20T05:52:22;8.00;86.80
84298;DHT22;74466;51.188;3.242;2023-12-20T05:54:48;8.00;87.10
84298;DHT22;74466;51.188;3.242;2023-12-20T05:57:14;7.90;87.20
84298;DHT22;74466;51.188;3.242;2023-12-20T05:59:40;7.90;87.50
84298;DHT22;74466;51.188;3.242;2023-12-20T06:02:06;7.90;88.00
84298;DHT22;74466;51.188;3.242;2023-12-20T06:04:32;7.90;87.60
84298;DHT22;74466;51.188;3.242;2023-12-20T06:06:58;7.90;87.70
84298;DHT22;74466;51.188;3.242;2023-12-20T06:09:26;7.90;87.70
84298;DHT22;74466;51.188;3.242;2023-12-20T06:11:52;7.80;88.00
84298;DHT22;74466;51.188;3.242;2023-12-20T06:14:17;7.90;88.00
84298;DHT22;74466;51.188;3.242;2023-12-20T06:16:43;7.90;89.00
84298;DHT22;74466;51.188;3.242;2023-12-20T06:19:10;7.80;88.10
84298;DHT22;74466;51.188;3.242;2023-12-20T06:21:36;7.80;88.20
84298;DHT22;74466;51.188;3.242;2023-12-20T06:24:02;7.80;87.60
84298;DHT22;74466;51.188;3.242;2023-12-20T06:26:27;7.90;87.40
84298;DHT22;74466;51.188;3.242;2023-12-20T06:28:53;7.90;87.30
84298;DHT22;74466;51.188;3.242;2023-12-20T06:31:19;7.90;87.20
84298;DHT22;74466;51.188;3.242;2023-12-20T06:33:45;7.80;87.50
84298;DHT22;74466;51.188;3.242;2023-12-20T06:36:14;7.70;87.90
84298;DHT22;74466;51.188;3.242;2023-12-20T06:38:40;7.80;88.00
84298;DHT22;74466;51.188;3.242;2023-12-20T06:41:07;7.70;88.20
84298;DHT22;74466;51.188;3.242;2023-12-20T06:43:33;7.70;88.10
84298;DHT22;74466;51.188;3.242;2023-12-20T06:46:00;7.70;88.60
84298;DHT22;74466;51.188;3.242;2023-12-20T06:48:26;7.70;88.50
84298;DHT22;74466;51.188;3.242;2023-12-20T06:50:52;7.70;88.80
84298;DHT22;74466;51.188;3.242;2023-12-20T06:53:18;7.70;88.70
84298;DHT22;74466;51.188;3.242;2023-12-20T06:55:44;7.70;88.60
84298;DHT22;74466;51.188;3.242;2023-12-20T06:58:10;7.70;88.70
84298;DHT22;74466;51.188;3.242;2023-12-20T07:00:35;7.70;89.20
84298;DHT22;74466;51.188;3.242;2023-12-20T07:03:01;7.60;89.30
84298;DHT22;74466;51.188;3.242;2023-12-20T07:05:27;7.70;89.00
84298;DHT22;74466;51.188;3.242;2023-12-20T07:07:52;7.60;89.00
84298;DHT22;74466;51.188;3.242;2023-12-20T07:10:19;7.70;89.50
84298;DHT22;74466;51.188;3.242;2023-12-20T07:12:44;7.60;89.50
84298;DHT22;74466;51.188;3.242;2023-12-20T07:15:10;7.70;89.50
84298;DHT22;74466;51.188;3.242;2023-12-20T07:17:37;7.70;89.30
84298;DHT22;74466;51.188;3.242;2023-12-20T07:20:03;7.70;89.50
84298;DHT22;74466;51.188;3.242;2023-12-20T07:22:33;7.70;89.50
84298;DHT22;74466;51.188;3.242;2023-12-20T07:24:59;7.70;89.30
84298;DHT22;74466;51.188;3.242;2023-12-20T07:27:26;7.70;89.20
84298;DHT22;74466;51.188;3.242;2023-12-20T07:29:52;7.70;88.90
84298;DHT22;74466;51.188;3.242;2023-12-20T07:32:18;7.70;89.00
84298;DHT22;74466;51.188;3.242;2023-12-20T07:34:43;7.70;89.30
84298;DHT22;74466;51.188;3.242;2023-12-20T07:37:09;7.70;89.20
84298;DHT22;74466;51.188;3.242;2023-12-20T07:39:43;7.70;89.80
84298;DHT22;74466;51.188;3.242;2023-12-20T07:42:08;7.70;89.40
84298;DHT22;74466;51.188;3.242;2023-12-20T07:44:34;7.70;89.20
84298;DHT22;74466;51.188;3.242;2023-12-20T07:47:01;7.70;89.20
84298;DHT22;74466;51.188;3.242;2023-12-20T07:49:27;7.70;89.10
84298;DHT22;74466;51.188;3.242;2023-12-20T07:51:53;7.70;89.30
84298;DHT22;74466;51.188;3.242;2023-12-20T07:54:18;7.70;89.80
84298;DHT22;74466;51.188;3.242;2023-12-20T07:56:46;7.70;89.50
84298;DHT22;74466;51.188;3.242;2023-12-20T07:59:11;7.70;89.20
84298;DHT22;74466;51.188;3.242;2023-12-20T08:01:37;7.80;89.80
84298;DHT22;74466;51.188;3.242;2023-12-20T08:04:03;7.80;89.20
84298;DHT22;74466;51.188;3.242;2023-12-20T08:06:29;7.80;89.00
84298;DHT22;74466;51.188;3.242;2023-12-20T08:08:55;7.80;89.00
84298;DHT22;74466;51.188;3.242;2023-12-20T08:11:20;7.80;88.90
84298;DHT22;74466;51.188;3.242;2023-12-20T08:13:46;7.80;89.20
84298;DHT22;74466;51.188;3.242;2023-12-20T08:16:12;7.90;88.60
84298;DHT22;74466;51.188;3.242;2023-12-20T08:18:39;8.00;88.50
84298;DHT22;74466;51.188;3.242;2023-12-20T08:21:05;8.00;89.10
84298;DHT22;74466;51.188;3.242;2023-12-20T08:23:33;8.10;89.20
84298;DHT22;74466;51.188;3.242;2023-12-20T08:26:06;8.20;88.20
84298;DHT22;74466;51.188;3.242;2023-12-20T08:28:32;8.20;88.00
84298;DHT22;74466;51.188;3.242;2023-12-20T08:30:58;8.20;87.70
84298;DHT22;74466;51.188;3.242;2023-12-20T08:33:24;8.30;87.70
84298;DHT22;74466;51.188;3.242;2023-12-20T08:35:50;8.30;87.50
84298;DHT22;74466;51.188;3.242;2023-12-20T08:38:16;8.40;88.20
84298;DHT22;74466;51.188;3.242;2023-12-20T08:40:43;8.40;87.80
84298;DHT22;74466;51.188;3.242;2023-12-20T08:43:09;8.50;87.90
84298;DHT22;74466;51.188;3.242;2023-12-20T08:45:35;8.50;87.60
84298;DHT22;74466;51.188;3.242;2023-12-20T08:48:00;8.40;87.90
84298;DHT22;74466;51.188;3.242;2023-12-20T08:50:27;8.50;87.90
84298;DHT22;74466;51.188;3.242;2023-12-20T08:52:52;8.50;87.60
84298;DHT22;74466;51.188;3.242;2023-12-20T08:55:19;8.50;87.70
84298;DHT22;74466;51.188;3.242;2023-12-20T08:57:45;8.50;87.70
84298;DHT22;74466;51.188;3.242;2023-12-20T09:00:11;8.50;87.60
84298;DHT22;74466;51.188;3.242;2023-12-20T09:02:37;8.40;88.00
84298;DHT22;74466;51.188;3.242;2023-12-20T09:05:03;8.40;88.90
84298;DHT22;74466;51.188;3.242;2023-12-20T09:07:29;8.50;87.90
84298;DHT22;74466;51.188;3.242;2023-12-20T09:09:57;8.60;87.90
84298;DHT22;74466;51.188;3.242;2023-12-20T09:12:23;8.80;87.70
84298;DHT22;74466;51.188;3.242;2023-12-20T09:14:50;8.90;87.40
84298;DHT22;74466;51.188;3.242;2023-12-20T09:17:17;8.90;87.40
84298;DHT22;74466;51.188;3.242;2023-12-20T09:19:45;9.00;87.10
84298;DHT22;74466;51.188;3.242;2023-12-20T09:22:11;9.00;86.40
84298;DHT22;74466;51.188;3.242;2023-12-20T09:24:37;9.00;86.10
84298;DHT22;74466;51.188;3.242;2023-12-20T09:27:04;9.00;86.00
84298;DHT22;74466;51.188;3.242;2023-12-20T09:29:31;9.10;86.40
84298;DHT22;74466;51.188;3.242;2023-12-20T09:31:56;9.10;86.40
84298;DHT22;74466;51.188;3.242;2023-12-20T09:34:23;9.00;86.40
84298;DHT22;74466;51.188;3.242;2023-12-20T09:36:49;8.90;86.40
84298;DHT22;74466;51.188;3.242;2023-12-20T09:39:16;8.90;87.10
84298;DHT22;74466;51.188;3.242;2023-12-20T09:41:49;8.90;87.20
84298;DHT22;74466;51.188;3.242;2023-12-20T09:44:18;8.90;87.00
84298;DHT22;74466;51.188;3.242;2023-12-20T09:46:49;8.90;87.20
84298;DHT22;74466;51.188;3.242;2023-12-20T09:49:17;8.90;87.40
84298;DHT22;74466;51.188;3.242;2023-12-20T09:51:45;8.80;87.60
84298;DHT22;74466;51.188;3.242;2023-12-20T09:54:13;8.80;87.70
84298;DHT22;74466;51.188;3.242;2023-12-20T09:56:40;8.80;88.20
84298;DHT22;74466;51.188;3.242;2023-12-20T09:59:05;8.60;88.40
84298;DHT22;74466;51.188;3.242;2023-12-20T10:01:31;8.70;88.90
84298;DHT22;74466;51.188;3.242;2023-12-20T10:04:00;8.60;89.10
84298;DHT22;74466;51.188;3.242;2023-12-20T10:06:25;8.60;89.10
84298;DHT22;74466;51.188;3.242;2023-12-20T10:08:52;8.70;88.60
84298;DHT22;74466;51.188;3.242;2023-12-20T10:11:18;8.70;88.70
84298;DHT22;74466;51.188;3.242;2023-12-20T10:13:47;8.70;89.00
84298;DHT22;74466;51.188;3.242;2023-12-20T10:16:13;8.70;88.70
84298;DHT22;74466;51.188;3.242;2023-12-20T10:18:39;8.80;89.10
84298;DHT22;74466;51.188;3.242;2023-12-20T10:21:06;8.80;88.40
84298;DHT22;74466;51.188;3.242;2023-12-20T10:23:32;8.90;88.90
84298;DHT22;74466;51.188;3.242;2023-12-20T10:25:58;8.90;88.70
84298;DHT22;74466;51.188;3.242;2023-12-20T10:28:24;9.00;88.10
84298;DHT22;74466;51.188;3.242;2023-12-20T10:30:53;9.10;88.60
84298;DHT22;74466;51.188;3.242;2023-12-20T10:33:27;9.10;87.50
84298;DHT22;74466;51.188;3.242;2023-12-20T10:35:54;9.20;87.30
84298;DHT22;74466;51.188;3.242;2023-12-20T10:38:21;9.30;87.60
84298;DHT22;74466;51.188;3.242;2023-12-20T10:40:47;9.40;88.00
84298;DHT22;74466;51.188;3.242;2023-12-20T10:43:15;9.30;87.00
84298;DHT22;74466;51.188;3.242;2023-12-20T10:45:42;9.30;87.40
84298;DHT22;74466;51.188;3.242;2023-12-20T10:48:10;9.30;87.60
84298;DHT22;74466;51.188;3.242;2023-12-20T10:50:41;9.40;89.10
84298;DHT22;74466;51.188;3.242;2023-12-20T10:53:07;9.40;87.40
84298;DHT22;74466;51.188;3.242;2023-12-20T10:55:33;9.40;87.10
84298;DHT22;74466;51.188;3.242;2023-12-20T10:58:07;9.50;87.60
84298;DHT22;74466;51.188;3.242;2023-12-20T11:00:37;9.60;87.10
84298;DHT22;74466;51.188;3.242;2023-12-20T11:03:05;9.70;87.20
84298;DHT22;74466;51.188;3.242;2023-12-20T11:05:53;9.80;85.90
84298;DHT22;74466;51.188;3.242;2023-12-20T11:08:24;9.90;85.50
84298;DHT22;74466;51.188;3.242;2023-12-20T11:11:20;9.90;85.50
84298;DHT22;74466;51.188;3.242;2023-12-20T11:14:03;9.90;85.20
84298;DHT22;74466;51.188;3.242;2023-12-20T11:16:37;10.00;85.50
84298;DHT22;74466;51.188;3.242;2023-12-20T11:19:05;10.00;85.00
84298;DHT22;74466;51.188;3.242;2023-12-20T11:21:31;10.00;85.30
84298;DHT22;74466;51.188;3.242;2023-12-20T11:23:57;10.00;85.00
84298;DHT22;74466;51.188;3.242;2023-12-20T11:26:27;10.00;85.50
84298;DHT22;74466;51.188;3.242;2023-12-20T11:28:54;10.00;85.40
84298;DHT22;74466;51.188;3.242;2023-12-20T11:31:20;10.00;85.20
84298;DHT22;74466;51.188;3.242;2023-12-20T11:33:46;10.00;85.00
84298;DHT22;74466;51.188;3.242;2023-12-20T11:36:18;10.10;84.80
84298;DHT22;74466;51.188;3.242;2023-12-20T11:39:06;10.10;85.00
84298;DHT22;74466;51.188;3.242;2023-12-20T11:41:34;10.00;84.90
84298;DHT22;74466;51.188;3.242;2023-12-20T11:44:00;10.10;84.50
84298;DHT22;74466;51.188;3.242;2023-12-20T11:46:26;10.10;84.10
84298;DHT22;74466;51.188;3.242;2023-12-20T11:48:52;10.10;84.10
84298;DHT22;74466;51.188;3.242;2023-12-20T11:51:18;10.20;84.30
84298;DHT22;74466;51.188;3.242;2023-12-20T11:53:43;10.20;84.10
84298;DHT22;74466;51.188;3.242;2023-12-20T11:56:10;10.30;83.70
84298;DHT22;74466;51.188;3.242;2023-12-20T11:58:36;10.30;83.60
84298;DHT22;74466;51.188;3.242;2023-12-20T12:01:02;10.40;83.10
84298;DHT22;74466;51.188;3.242;2023-12-20T12:03:29;10.40;83.10
84298;DHT22;74466;51.188;3.242;2023-12-20T12:05:55;10.30;83.00
84298;DHT22;74466;51.188;3.242;2023-12-20T12:08:21;10.40;83.00
84298;DHT22;74466;51.188;3.242;2023-12-20T12:10:47;10.40;82.80
84298;DHT22;74466;51.188;3.242;2023-12-20T12:13:13;10.40;82.50
84298;DHT22;74466;51.188;3.242;2023-12-20T12:15:42;10.40;82.00
84298;DHT22;74466;51.188;3.242;2023-12-20T12:18:08;10.40;82.30
84298;DHT22;74466;51.188;3.242;2023-12-20T12:20:35;10.40;82.20
84298;DHT22;74466;51.188;3.242;2023-12-20T12:23:05;10.30;83.10
84298;DHT22;74466;51.188;3.242;2023-12-20T12:25:34;10.30;83.10
84298;DHT22;74466;51.188;3.242;2023-12-20T12:28:00;10.50;82.40
84298;DHT22;74466;51.188;3.242;2023-12-20T12:30:26;10.50;83.10
84298;DHT22;74466;51.188;3.242;2023-12-20T12:32:53;10.70;82.90
84298;DHT22;74466;51.188;3.242;2023-12-20T12:35:19;10.80;82.20
84298;DHT22;74466;51.188;3.242;2023-12-20T12:37:46;10.80;82.50
84298;DHT22;74466;51.188;3.242;2023-12-20T12:40:13;10.80;82.30
84298;DHT22;74466;51.188;3.242;2023-12-20T12:42:39;10.90;81.70
84298;DHT22;74466;51.188;3.242;2023-12-20T12:45:05;10.90;81.30
84298;DHT22;74466;51.188;3.242;2023-12-20T12:47:32;10.80;81.80
84298;DHT22;74466;51.188;3.242;2023-12-20T12:49:58;10.80;81.50
84298;DHT22;74466;51.188;3.242;2023-12-20T12:52:24;10.90;81.90
84298;DHT22;74466;51.188;3.242;2023-12-20T12:54:49;10.80;81.90
84298;DHT22;74466;51.188;3.242;2023-12-20T12:57:16;10.80;82.20
84298;DHT22;74466;51.188;3.242;2023-12-20T12:59:43;10.80;81.80
84298;DHT22;74466;51.188;3.242;2023-12-20T13:02:11;10.70;82.30
84298;DHT22;74466;51.188;3.242;2023-12-20T13:04:37;10.80;83.10
84298;DHT22;74466;51.188;3.242;2023-12-20T13:07:03;10.80;82.50
84298;DHT22;74466;51.188;3.242;2023-12-20T13:09:28;10.80;81.90
84298;DHT22;74466;51.188;3.242;2023-12-20T13:11:54;10.80;81.90
84298;DHT22;74466;51.188;3.242;2023-12-20T13:14:20;10.80;81.90
84298;DHT22;74466;51.188;3.242;2023-12-20T13:16:46;10.80;81.60
84298;DHT22;74466;51.188;3.242;2023-12-20T13:19:12;10.80;82.20
84298;DHT22;74466;51.188;3.242;2023-12-20T13:21:37;10.80;81.70
84298;DHT22;74466;51.188;3.242;2023-12-20T13:24:04;10.70;82.60
84298;DHT22;74466;51.188;3.242;2023-12-20T13:26:30;10.70;82.60
84298;DHT22;74466;51.188;3.242;2023-12-20T13:28:55;10.80;83.10
84298;DHT22;74466;51.188;3.242;2023-12-20T13:31:21;10.80;82.20
84298;DHT22;74466;51.188;3.242;2023-12-20T13:33:47;10.70;82.60
84298;DHT22;74466;51.188;3.242;2023-12-20T13:36:13;10.70;83.10
84298;DHT22;74466;51.188;3.242;2023-12-20T13:38:39;10.70;83.00
84298;DHT22;74466;51.188;3.242;2023-12-20T13:41:04;10.80;82.70
84298;DHT22;74466;51.188;3.242;2023-12-20T13:43:31;10.80;82.40
84298;DHT22;74466;51.188;3.242;2023-12-20T13:45:58;10.80;82.20
84298;DHT22;74466;51.188;3.242;2023-12-20T13:48:24;10.80;83.00
84298;DHT22;74466;51.188;3.242;2023-12-20T13:50:50;10.80;82.60
84298;DHT22;74466;51.188;3.242;2023-12-20T13:53:15;10.80;82.30
84298;DHT22;74466;51.188;3.242;2023-12-20T13:55:41;10.80;82.50
84298;DHT22;74466;51.188;3.242;2023-12-20T13:58:08;10.90;82.70
84298;DHT22;74466;51.188;3.242;2023-12-20T14:00:35;10.90;82.80
84298;DHT22;74466;51.188;3.242;2023-12-20T14:03:03;10.80;82.70
84298;DHT22;74466;51.188;3.242;2023-12-20T14:05:29;10.80;82.50
84298;DHT22;74466;51.188;3.242;2023-12-20T14:07:55;10.70;83.10
84298;DHT22;74466;51.188;3.242;2023-12-20T14:10:23;10.70;83.30
84298;DHT22;74466;51.188;3.242;2023-12-20T14:12:53;10.60;83.80
84298;DHT22;74466;51.188;3.242;2023-12-20T14:15:19;10.60;84.10
84298;DHT22;74466;51.188;3.242;2023-12-20T14:17:45;10.70;83.90
84298;DHT22;74466;51.188;3.242;2023-12-20T14:20:11;10.60;83.30
84298;DHT22;74466;51.188;3.242;2023-12-20T14:22:41;10.60;84.10
84298;DHT22;74466;51.188;3.242;2023-12-20T14:25:13;10.60;84.10
84298;DHT22;74466;51.188;3.242;2023-12-20T14:27:40;10.60;84.80
84298;DHT22;74466;51.188;3.242;2023-12-20T14:30:07;10.60;84.40
84298;DHT22;74466;51.188;3.242;2023-12-20T14:32:35;10.50;84.50
84298;DHT22;74466;51.188;3.242;2023-12-20T14:35:07;10.40;85.10
84298;DHT22;74466;51.188;3.242;2023-12-20T14:37:34;10.40;85.50
84298;DHT22;74466;51.188;3.242;2023-12-20T14:40:00;10.40;85.50
84298;DHT22;74466;51.188;3.242;2023-12-20T14:42:26;10.50;85.30
84298;DHT22;74466;51.188;3.242;2023-12-20T14:44:52;10.40;85.50
84298;DHT22;74466;51.188;3.242;2023-12-20T14:47:19;10.50;85.60
84298;DHT22;74466;51.188;3.242;2023-12-20T14:49:46;10.50;85.30
84298;DHT22;74466;51.188;3.242;2023-12-20T14:52:13;10.40;85.00
84298;DHT22;74466;51.188;3.242;2023-12-20T14:54:39;10.50;85.20
84298;DHT22;74466;51.188;3.242;2023-12-20T14:57:04;10.50;85.40
84298;DHT22;74466;51.188;3.242;2023-12-20T14:59:30;10.50;85.10
84298;DHT22;74466;51.188;3.242;2023-12-20T15:01:56;10.40;85.80
84298;DHT22;74466;51.188;3.242;2023-12-20T15:04:21;10.40;85.60
84298;DHT22;74466;51.188;3.242;2023-12-20T15:06:55;10.50;85.50
84298;DHT22;74466;51.188;3.242;2023-12-20T15:09:21;10.50;86.00
84298;DHT22;74466;51.188;3.242;2023-12-20T15:11:46;10.40;85.50
84298;DHT22;74466;51.188;3.242;2023-12-20T15:14:12;10.50;85.80
84298;DHT22;74466;51.188;3.242;2023-12-20T15:16:44;10.60;85.80
84298;DHT22;74466;51.188;3.242;2023-12-20T15:19:09;10.60;85.80
84298;DHT22;74466;51.188;3.242;2023-12-20T15:21:35;10.50;85.40
84298;DHT22;74466;51.188;3.242;2023-12-20T15:24:06;10.50;85.70
84298;DHT22;74466;51.188;3.242;2023-12-20T15:26:39;10.50;86.30
84298;DHT22;74466;51.188;3.242;2023-12-20T15:29:05;10.40;86.30
84298;DHT22;74466;51.188;3.242;2023-12-20T15:31:32;10.30;86.80
84298;DHT22;74466;51.188;3.242;2023-12-20T15:33:58;10.30;87.30
84298;DHT22;74466;51.188;3.242;2023-12-20T15:36:24;10.40;87.30
84298;DHT22;74466;51.188;3.242;2023-12-20T15:38:51;10.30;87.30